Nyk Atlas — H8TS — position and weather

sailwx.info

Track history (hours):
 
Tides and Currents Weather Stations Pressure Air Temp Water Temp Dewpoint Dewpoint Depression Visibility Wind Speed Wind Dir Waves Ship Positions

Nyk Atlas

Last reported at 2017-Dec-31 02:28 UTC. Time now 2018-Jan-20 15:36 UTC.
Position N 36°11' E 014°50'.
Warning: this ship's position is 20 days out of date.

Length 299.9 m; beam 40.1 m.

Type: Ship (hazmat cat D). MMSI: 354614000.

Date/timePositionNaut miles runAvg speedWind from/ knotsBaromVisibWave heightAir tempDewpointWater temp
2017-Dec-31 02:28N 36°11' E 014°50'817.0
2017-Dec-31 02:00N 36°14' E 014°41'817.2
2017-Dec-31 01:30N 36°16' E 014°31'917.5
2017-Dec-31 01:00N 36°19' E 014°21'917.8
2017-Dec-31 00:30N 36°22' E 014°10'917.9
2017-Dec-31 00:00N 36°25' E 013°60'917.9
2017-Dec-30 23:30N 36°29' E 013°49'91817.7
2017-Dec-28 19:45N 36°01' W 005°08'521.5
2017-Dec-28 19:30N 36°00' W 005°15'1020.8
2017-Dec-28 19:00N 35°58' W 005°27'77016.8
2017-Dec-26 21:11N 39°54' W 020°56'617.1
2017-Dec-26 20:50N 39°56' W 021°04'5317.0
2017-Dec-26 17:42N 40°12' W 022°10'317.1
2017-Dec-26 17:29N 40°13' W 022°14'1317.2
2017-Dec-26 16:44N 40°17' W 022°31'417.2
2017-Dec-26 16:30N 40°18' W 022°36'917.4
2017-Dec-26 16:00N 40°20' W 022°46'1019.3
2017-Dec-26 15:30N 40°23' W 022°59'917.7
2017-Dec-26 15:00N 40°26' W 023°10'917.4
2017-Dec-26 14:30N 40°28' W 023°21'1217.6
2017-Dec-26 13:50N 40°32' W 023°36'1217.2
2017-Dec-26 13:09N 40°36' W 023°50'317.3
2017-Dec-26 12:59N 40°36' W 023°54'817.1
2017-Dec-26 12:30N 40°39' W 024°04'917.0
2017-Dec-26 12:00N 40°41' W 024°15'917.4
2017-Dec-26 11:30N 40°44' W 024°26'817.1
2017-Dec-26 11:00N 40°46' W 024°37'1117.1
2017-Dec-26 10:23N 40°50' W 024°50'917.0
2017-Dec-26 09:53N 40°52' W 025°01'816.9
2017-Dec-26 09:25N 40°54' W 025°11'5317.3
2017-Dec-26 06:20N 41°07' W 026°19'1517.5
2017-Dec-26 05:28N 41°11' W 026°39'917.5
2017-Dec-26 04:57N 41°13' W 026°51'817.5
2017-Dec-26 04:30N 41°15' W 027°01'917.4
2017-Dec-26 04:00N 41°17' W 027°12'3017.5
2017-Dec-26 02:17N 41°24' W 027°51'1017.7
2017-Dec-26 01:44N 41°27' W 028°03'417.8
2017-Dec-26 01:31N 41°28' W 028°08'917.5
2017-Dec-26 01:00N 41°30' W 028°20'1117.3
2017-Dec-26 00:22N 41°32' W 028°34'1417.6
2017-Dec-25 23:34N 41°36' W 028°52'317.4
2017-Dec-25 23:25N 41°36' W 028°56'1017.6
2017-Dec-25 22:51N 41°39' W 029°09'617.6
2017-Dec-25 22:30N 41°40' W 029°17'1017.5
2017-Dec-25 21:56N 41°43' W 029°30'817.5
2017-Dec-25 21:30N 41°45' W 029°40'917.5
2017-Dec-25 21:00N 41°47' W 029°51'917.5
2017-Dec-25 20:30N 41°49' W 030°02'917.4
2017-Dec-25 20:00N 41°50' W 030°14'917.3
2017-Dec-25 19:30N 41°52' W 030°25'917.2
2017-Dec-25 19:00N 41°54' W 030°36'917.3
2017-Dec-25 18:31N 41°55' W 030°48'917.1
2017-Dec-25 18:00N 41°57' W 030°59'917.1
2017-Dec-25 17:30N 41°58' W 031°10'1117.3
2017-Dec-25 16:52N 42°00' W 031°25'4217.2
2017-Dec-25 14:25N 42°09' W 032°21'  
Track history (hours):
 
Tides and Currents Weather Stations Pressure Air Temp Water Temp Dewpoint Dewpoint Depression Visibility Wind Speed Wind Dir Waves Ship Positions

Nyk Atlas

Last reported at 2017-Dec-31 02:28 UTC. Time now 2018-Jan-20 15:36 UTC.
Position N 36°11' E 014°50'.
Warning: this ship's position is 20 days out of date.

Length 299.9 m; beam 40.1 m.

Type: Ship (hazmat cat D). MMSI: 354614000.

Date/timePositionNaut miles runAvg speedWind from/ knotsBaromVisibWave heightAir tempDewpointWater temp
2017-Dec-31 02:28N 36°11' E 014°50'817.0
2017-Dec-31 02:00N 36°14' E 014°41'817.2
2017-Dec-31 01:30N 36°16' E 014°31'917.5
2017-Dec-31 01:00N 36°19' E 014°21'917.8
2017-Dec-31 00:30N 36°22' E 014°10'917.9
2017-Dec-31 00:00N 36°25' E 013°60'917.9
2017-Dec-30 23:30N 36°29' E 013°49'91817.7
2017-Dec-28 19:45N 36°01' W 005°08'521.5
2017-Dec-28 19:30N 36°00' W 005°15'1020.8
2017-Dec-28 19:00N 35°58' W 005°27'77016.8
2017-Dec-26 21:11N 39°54' W 020°56'617.1
2017-Dec-26 20:50N 39°56' W 021°04'5317.0
2017-Dec-26 17:42N 40°12' W 022°10'317.1
2017-Dec-26 17:29N 40°13' W 022°14'1317.2
2017-Dec-26 16:44N 40°17' W 022°31'417.2
2017-Dec-26 16:30N 40°18' W 022°36'917.4
2017-Dec-26 16:00N 40°20' W 022°46'1019.3
2017-Dec-26 15:30N 40°23' W 022°59'917.7
2017-Dec-26 15:00N 40°26' W 023°10'917.4
2017-Dec-26 14:30N 40°28' W 023°21'1217.6
2017-Dec-26 13:50N 40°32' W 023°36'1217.2
2017-Dec-26 13:09N 40°36' W 023°50'317.3
2017-Dec-26 12:59N 40°36' W 023°54'817.1
2017-Dec-26 12:30N 40°39' W 024°04'917.0
2017-Dec-26 12:00N 40°41' W 024°15'917.4
2017-Dec-26 11:30N 40°44' W 024°26'817.1
2017-Dec-26 11:00N 40°46' W 024°37'1117.1
2017-Dec-26 10:23N 40°50' W 024°50'917.0
2017-Dec-26 09:53N 40°52' W 025°01'816.9
2017-Dec-26 09:25N 40°54' W 025°11'5317.3
2017-Dec-26 06:20N 41°07' W 026°19'1517.5
2017-Dec-26 05:28N 41°11' W 026°39'917.5
2017-Dec-26 04:57N 41°13' W 026°51'817.5
2017-Dec-26 04:30N 41°15' W 027°01'917.4
2017-Dec-26 04:00N 41°17' W 027°12'3017.5
2017-Dec-26 02:17N 41°24' W 027°51'1017.7
2017-Dec-26 01:44N 41°27' W 028°03'417.8
2017-Dec-26 01:31N 41°28' W 028°08'917.5
2017-Dec-26 01:00N 41°30' W 028°20'1117.3
2017-Dec-26 00:22N 41°32' W 028°34'1417.6
2017-Dec-25 23:34N 41°36' W 028°52'317.4
2017-Dec-25 23:25N 41°36' W 028°56'1017.6
2017-Dec-25 22:51N 41°39' W 029°09'617.6
2017-Dec-25 22:30N 41°40' W 029°17'1017.5
2017-Dec-25 21:56N 41°43' W 029°30'817.5
2017-Dec-25 21:30N 41°45' W 029°40'917.5
2017-Dec-25 21:00N 41°47' W 029°51'917.5
2017-Dec-25 20:30N 41°49' W 030°02'917.4
2017-Dec-25 20:00N 41°50' W 030°14'917.3
2017-Dec-25 19:30N 41°52' W 030°25'917.2
2017-Dec-25 19:00N 41°54' W 030°36'917.3
2017-Dec-25 18:31N 41°55' W 030°48'917.1
2017-Dec-25 18:00N 41°57' W 030°59'917.1
2017-Dec-25 17:30N 41°58' W 031°10'1117.3
2017-Dec-25 16:52N 42°00' W 031°25'4217.2
2017-Dec-25 14:25N 42°09' W 032°21'  

Dump ship's entire track history